WALL/BPN METAR and TAF weather

Enter ICAO airport designator
Station Type Date Time Source
WALL METAR 2020/01/24 03:00 UTC NOAA

WALL 240300Z 03009KT 9999 SCT018 31/23 Q1011


Station Type Date Time Source
WALL Decoded METAR 2020/01/24 03:00 UTC NOAA

Station name not available
Jan 23, 2020 - 10:00 PM EST / 2020.01.24 0300 UTC
Wind: from the NNE (030 degrees) at 10 MPH (9 KT):0
Visibility: greater than 7 mile(s):0
Sky conditions: partly cloudy
Temperature: 87 F (31 C)
Heat index: 93.9 F (34.4 C):1
Dew Point: 73 F (23 C)
Relative Humidity: 62%
Pressure (altimeter): 29.85 in. Hg (1011 hPa)
ob: WALL 240300Z 03009KT 9999 SCT018 31/23 Q1011
cycle: 3

Station Type Date Time Source
WALL TAF 2020/01/23 18:00 UTC NOAA

TAF WALL 231700Z 2318/2424 03006KT 9000 SCT020

Example: see airport list